createdAt,value
2022-12-06T00:01:19.699Z,1.65
2022-12-06T00:03:48.336Z,1.60
2022-12-06T00:06:18.100Z,1.61
2022-12-06T00:08:46.387Z,1.56
2022-12-06T00:11:16.039Z,1.64
2022-12-06T00:13:42.979Z,1.58
2022-12-06T00:16:12.551Z,1.66
2022-12-06T00:18:40.552Z,1.69
2022-12-06T00:21:08.379Z,1.73
2022-12-06T00:23:37.366Z,1.77
2022-12-06T00:26:05.085Z,1.76
2022-12-06T00:28:32.199Z,1.76
2022-12-06T00:31:04.865Z,1.79
2022-12-06T00:33:31.920Z,1.80
2022-12-06T00:36:00.712Z,1.79
2022-12-06T00:38:28.464Z,1.76
2022-12-06T00:41:04.113Z,1.72
2022-12-06T00:43:31.668Z,1.81
2022-12-06T00:45:58.616Z,1.79
2022-12-06T00:48:25.315Z,1.76
2022-12-06T00:50:51.991Z,1.82
2022-12-06T00:53:18.519Z,1.78
2022-12-06T00:55:47.035Z,1.71
2022-12-06T00:58:14.033Z,1.73
2022-12-06T01:00:40.633Z,1.73
2022-12-06T01:03:07.681Z,1.69
2022-12-06T01:05:39.497Z,1.65
2022-12-06T01:08:06.120Z,1.66
2022-12-06T01:10:32.733Z,1.62
2022-12-06T01:12:59.253Z,1.60
2022-12-06T01:15:26.358Z,1.59
2022-12-06T01:17:52.837Z,1.54
2022-12-06T01:20:19.424Z,1.52
2022-12-06T01:22:45.905Z,1.56
2022-12-06T01:25:12.452Z,1.49
2022-12-06T01:27:38.962Z,1.52
2022-12-06T01:30:06.779Z,1.49
2022-12-06T01:32:33.353Z,1.49
2022-12-06T01:34:59.888Z,1.43
2022-12-06T01:37:26.377Z,1.44
2022-12-06T01:39:52.893Z,1.45
2022-12-06T01:42:19.510Z,1.50
2022-12-06T01:44:49.750Z,1.55
2022-12-06T01:47:18.800Z,1.59
2022-12-06T01:50:24.366Z,1.65
2022-12-06T01:53:00.233Z,1.68
2022-12-06T01:55:30.293Z,1.68
2022-12-06T01:57:58.537Z,1.70
2022-12-06T02:00:25.104Z,1.66
2022-12-06T02:02:52.250Z,1.62
2022-12-06T02:05:18.956Z,1.64
2022-12-06T02:07:46.653Z,1.69
2022-12-06T02:10:13.567Z,1.69
2022-12-06T02:12:40.150Z,1.70
2022-12-06T02:15:07.181Z,1.64
2022-12-06T02:17:46.268Z,1.63
2022-12-06T02:20:17.703Z,1.58
2022-12-06T02:23:12.890Z,1.59
2022-12-06T02:25:57.559Z,1.55
2022-12-06T02:28:39.317Z,1.53
2022-12-06T02:31:14.205Z,1.52
2022-12-06T02:33:56.518Z,1.51
2022-12-06T02:36:44.030Z,1.51
2022-12-06T02:39:21.094Z,1.49
2022-12-06T02:42:00.296Z,1.45
2022-12-06T02:44:33.784Z,1.42
2022-12-06T02:47:03.936Z,1.47
2022-12-06T02:49:33.434Z,1.49
2022-12-06T02:52:00.181Z,1.48
2022-12-06T02:54:28.698Z,1.52
2022-12-06T02:56:55.237Z,1.50
2022-12-06T02:59:22.078Z,1.46
2022-12-06T03:01:58.063Z,1.48
2022-12-06T03:04:48.934Z,1.52
2022-12-06T03:07:36.463Z,1.61
2022-12-06T03:10:12.277Z,1.59
2022-12-06T03:12:55.165Z,1.54
2022-12-06T03:15:56.514Z,1.55
2022-12-06T03:18:35.165Z,1.51
2022-12-06T03:21:18.345Z,1.51
2022-12-06T03:23:47.944Z,1.51
2022-12-06T03:26:21.136Z,1.51
2022-12-06T03:28:50.354Z,1.46
2022-12-06T03:31:16.959Z,1.49
2022-12-06T03:33:48.524Z,1.45
2022-12-06T03:36:16.958Z,1.42
2022-12-06T03:38:52.267Z,1.40
2022-12-06T03:41:21.342Z,1.40
2022-12-06T03:43:48.166Z,1.43
2022-12-06T03:46:21.677Z,1.47
2022-12-06T03:49:01.252Z,1.51
2022-12-06T03:51:30.956Z,1.48
2022-12-06T03:54:04.699Z,1.52
2022-12-06T03:56:36.796Z,1.54
2022-12-06T03:59:08.245Z,1.55
2022-12-06T04:01:35.309Z,1.58
2022-12-06T04:04:02.185Z,1.57
2022-12-06T04:06:28.887Z,1.56
2022-12-06T04:09:15.693Z,1.54
2022-12-06T04:11:42.217Z,1.55
2022-12-06T04:14:08.795Z,1.59
2022-12-06T04:16:53.606Z,1.68
2022-12-06T04:19:20.183Z,1.71
2022-12-06T04:22:05.320Z,1.74
2022-12-06T04:24:31.851Z,1.74
2022-12-06T04:27:16.912Z,1.78
2022-12-06T04:30:02.040Z,1.74
2022-12-06T04:32:46.873Z,1.71
2022-12-06T04:35:32.347Z,1.66
2022-12-06T04:38:17.668Z,1.70
2022-12-06T04:40:44.688Z,1.75
2022-12-06T04:43:29.826Z,1.71
2022-12-06T04:45:56.356Z,1.65
2022-12-06T04:48:22.888Z,1.65
2022-12-06T04:50:50.654Z,1.61
2022-12-06T04:53:18.090Z,1.59
2022-12-06T04:55:48.268Z,1.52
2022-12-06T04:58:14.970Z,1.52
2022-12-06T05:00:44.635Z,1.53
2022-12-06T05:03:12.374Z,1.57
2022-12-06T05:05:39.323Z,1.57
2022-12-06T05:08:06.679Z,1.52
2022-12-06T05:10:33.635Z,1.56
2022-12-06T05:13:00.870Z,1.55
2022-12-06T05:15:29.416Z,1.45
2022-12-06T05:17:56.474Z,1.31
2022-12-06T05:20:23.727Z,1.24
2022-12-06T05:22:50.290Z,1.25
2022-12-06T05:25:17.121Z,1.22
2022-12-06T05:27:44.864Z,1.26
2022-12-06T05:30:11.919Z,1.26
2022-12-06T05:32:39.963Z,1.14
2022-12-06T05:35:07.636Z,1.04
2022-12-06T05:37:34.164Z,0.94
2022-12-06T05:40:00.932Z,0.80
2022-12-06T05:42:27.669Z,0.71
2022-12-06T05:44:54.189Z,0.57
2022-12-06T05:47:20.661Z,0.45
2022-12-06T05:49:47.272Z,0.36
2022-12-06T05:52:13.841Z,0.19
2022-12-06T05:54:40.364Z,0.09
2022-12-06T05:57:06.860Z,0.04
2022-12-06T05:59:33.730Z,0.09
2022-12-06T06:02:00.324Z,0.19
2022-12-06T06:04:27.021Z,0.31
2022-12-06T06:06:53.561Z,0.40
2022-12-06T06:09:20.130Z,0.49
2022-12-06T06:11:46.766Z,0.53
2022-12-06T06:14:13.251Z,0.60
2022-12-06T06:16:39.819Z,0.62
2022-12-06T06:19:06.330Z,0.64
2022-12-06T06:21:33.527Z,0.66
2022-12-06T06:24:00.130Z,0.65
2022-12-06T06:26:26.668Z,0.70
2022-12-06T06:28:53.132Z,0.71
2022-12-06T06:31:19.704Z,0.71
2022-12-06T06:33:46.252Z,0.70
2022-12-06T06:36:13.137Z,0.65
2022-12-06T06:38:39.691Z,0.62
2022-12-06T06:41:07.169Z,0.58
2022-12-06T06:43:33.869Z,1.35
2022-12-06T06:46:02.791Z,2.16
2022-12-06T06:48:32.583Z,1.74
2022-12-06T06:51:10.994Z,1.38
2022-12-06T06:53:38.208Z,1.22
2022-12-06T06:56:05.849Z,1.10
2022-12-06T06:58:32.721Z,1.02
2022-12-06T07:01:01.261Z,0.93
2022-12-06T07:03:28.780Z,0.88
2022-12-06T07:05:58.255Z,0.95
2022-12-06T07:08:25.884Z,0.97
2022-12-06T07:10:52.371Z,0.98
2022-12-06T07:13:20.713Z,1.06
2022-12-06T07:15:47.768Z,1.08
2022-12-06T07:18:15.977Z,1.10
2022-12-06T07:20:43.713Z,1.13
2022-12-06T07:23:10.354Z,1.17
2022-12-06T07:25:36.869Z,1.20
2022-12-06T07:28:04.285Z,1.22
2022-12-06T07:30:30.926Z,1.22
2022-12-06T07:32:57.930Z,1.25
2022-12-06T07:35:41.960Z,1.25
2022-12-06T07:38:11.837Z,1.36
2022-12-06T07:41:03.500Z,1.41
2022-12-06T07:43:43.085Z,1.46
2022-12-06T07:46:13.045Z,1.54
2022-12-06T07:48:39.571Z,1.57
2022-12-06T07:51:07.490Z,1.61
2022-12-06T07:53:34.041Z,1.64
2022-12-06T07:56:06.706Z,1.68
2022-12-06T07:58:33.272Z,1.74
2022-12-06T08:00:59.859Z,1.83
2022-12-06T08:03:26.469Z,1.90
2022-12-06T08:05:54.704Z,1.95
2022-12-06T08:08:26.662Z,2.08
2022-12-06T08:10:54.895Z,2.14
2022-12-06T08:13:21.396Z,2.22
2022-12-06T08:15:48.002Z,2.28
2022-12-06T08:18:14.566Z,2.29
2022-12-06T08:20:41.125Z,2.45
2022-12-06T08:23:07.641Z,2.46
2022-12-06T08:25:34.225Z,2.48
2022-12-06T08:28:00.766Z,2.51
2022-12-06T08:30:27.347Z,2.53
2022-12-06T08:32:53.838Z,2.67
2022-12-06T08:35:20.404Z,2.83
2022-12-06T08:37:46.957Z,2.91
2022-12-06T08:40:13.893Z,3.02
2022-12-06T08:42:41.987Z,3.08
2022-12-06T08:45:09.021Z,3.16
2022-12-06T08:47:35.695Z,3.18
2022-12-06T08:50:02.578Z,3.30
2022-12-06T08:52:29.320Z,3.31
2022-12-06T08:54:55.854Z,3.43
2022-12-06T08:57:22.356Z,3.49
2022-12-06T08:59:48.907Z,3.59
2022-12-06T09:02:15.526Z,3.81
2022-12-06T09:04:42.179Z,3.75
2022-12-06T09:07:26.924Z,3.75
2022-12-06T09:09:54.694Z,3.72
2022-12-06T09:12:21.827Z,3.76
2022-12-06T09:14:48.321Z,3.89
2022-12-06T09:17:15.453Z,3.99
2022-12-06T09:19:41.988Z,3.94
2022-12-06T09:22:08.553Z,3.94
2022-12-06T09:24:35.107Z,4.08
2022-12-06T09:27:01.612Z,4.02
2022-12-06T09:29:28.194Z,4.02
2022-12-06T09:31:54.961Z,3.86
2022-12-06T09:34:21.442Z,3.76
2022-12-06T09:36:56.505Z,3.71
2022-12-06T09:39:34.743Z,3.86
2022-12-06T09:42:36.116Z,3.87
2022-12-06T09:45:36.190Z,3.86
2022-12-06T09:48:06.521Z,3.85
2022-12-06T09:51:08.093Z,3.92
2022-12-06T09:53:47.624Z,4.02
2022-12-06T09:56:31.197Z,4.11
2022-12-06T09:59:39.235Z,4.14
2022-12-06T10:02:31.371Z,4.21
2022-12-06T10:05:16.514Z,4.27
2022-12-06T10:08:10.060Z,4.35
2022-12-06T10:10:55.426Z,4.41
2022-12-06T10:13:37.203Z,4.49
2022-12-06T10:16:22.163Z,4.75
2022-12-06T10:19:03.819Z,4.98
2022-12-06T10:21:53.272Z,5.39
2022-12-06T10:24:41.543Z,5.95
2022-12-06T10:27:20.514Z,6.86
2022-12-06T10:29:59.149Z,7.77
2022-12-06T10:32:44.763Z,9.85
2022-12-06T10:35:17.803Z,11.59
2022-12-06T10:37:59.719Z,11.20
2022-12-06T10:40:52.412Z,10.92
2022-12-06T10:43:50.102Z,10.96
2022-12-06T10:46:56.145Z,11.23
2022-12-06T10:49:29.587Z,11.02
2022-12-06T10:52:04.291Z,10.69
2022-12-06T10:54:41.734Z,10.69
2022-12-06T10:57:17.210Z,10.69
2022-12-06T10:59:54.495Z,10.28
2022-12-06T11:02:34.901Z,9.53
2022-12-06T11:05:07.049Z,9.57
2022-12-06T11:07:46.439Z,9.62
2022-12-06T11:10:26.864Z,9.45
2022-12-06T11:13:17.036Z,9.31
2022-12-06T11:15:55.267Z,9.42
2022-12-06T11:18:22.707Z,9.39
2022-12-06T11:21:20.605Z,9.12
2022-12-06T11:24:24.741Z,9.14
2022-12-06T11:27:00.225Z,8.98
2022-12-06T11:29:27.581Z,8.71
2022-12-06T11:32:01.781Z,8.55
2022-12-06T11:34:39.214Z,8.26
2022-12-06T11:37:06.999Z,7.83
2022-12-06T11:39:34.457Z,7.78
2022-12-06T11:42:04.199Z,7.71
2022-12-06T11:44:49.941Z,7.40
2022-12-06T11:47:21.552Z,7.25
2022-12-06T11:49:51.069Z,7.16
2022-12-06T11:52:35.016Z,6.96
2022-12-06T11:55:14.017Z,6.62
2022-12-06T11:57:54.772Z,6.62
2022-12-06T12:00:24.248Z,6.46
2022-12-06T12:02:53.804Z,6.47
2022-12-06T12:05:25.299Z,6.28
2022-12-06T12:08:01.478Z,6.17
2022-12-06T12:10:33.221Z,6.15
2022-12-06T12:13:33.655Z,6.11
2022-12-06T12:16:03.425Z,5.95
2022-12-06T12:18:36.600Z,5.82
2022-12-06T12:21:05.216Z,5.73
2022-12-06T12:23:47.196Z,5.66
2022-12-06T12:26:20.215Z,5.62
2022-12-06T12:29:03.604Z,5.48
2022-12-06T12:31:33.327Z,5.47
2022-12-06T12:34:30.056Z,5.42
2022-12-06T12:37:00.396Z,5.27
2022-12-06T12:39:39.899Z,5.28
2022-12-06T12:42:41.285Z,5.21
2022-12-06T12:45:22.336Z,5.17
2022-12-06T12:47:59.523Z,5.14
2022-12-06T12:50:48.399Z,5.11
2022-12-06T12:54:37.363Z,5.08
2022-12-06T12:57:12.579Z,5.01
2022-12-06T12:59:41.079Z,4.98
2022-12-06T13:02:20.058Z,4.99
2022-12-06T13:08:20.428Z,4.87
2022-12-06T13:10:55.519Z,4.90
2022-12-06T13:13:40.265Z,4.90
2022-12-06T13:16:15.272Z,4.85
2022-12-06T13:18:46.148Z,4.87
2022-12-06T13:21:21.838Z,4.89
2022-12-06T13:23:53.680Z,4.74
2022-12-06T13:26:27.153Z,4.81
2022-12-06T13:29:01.372Z,4.82
2022-12-06T13:31:36.367Z,4.79
2022-12-06T13:34:12.156Z,4.87
2022-12-06T13:36:38.927Z,4.87
2022-12-06T13:39:35.215Z,4.93
2022-12-06T13:42:30.412Z,4.84
2022-12-06T13:44:59.838Z,4.73
2022-12-06T13:47:29.434Z,4.66
2022-12-06T13:50:15.358Z,4.69
2022-12-06T13:52:48.292Z,4.77
2022-12-06T13:55:23.975Z,4.79
2022-12-06T13:58:10.696Z,4.81
2022-12-06T14:00:40.208Z,4.85
2022-12-06T14:03:15.904Z,4.76
2022-12-06T14:06:14.897Z,4.81
2022-12-06T14:08:59.549Z,4.61
2022-12-06T14:11:34.001Z,4.48
2022-12-06T14:14:09.349Z,4.36
2022-12-06T14:16:43.852Z,4.27
2022-12-06T14:19:29.640Z,4.23
2022-12-06T14:22:02.569Z,4.16
2022-12-06T14:24:37.776Z,4.05
2022-12-06T14:27:13.055Z,3.97
2022-12-06T14:29:40.874Z,3.91
2022-12-06T14:32:07.784Z,3.82
2022-12-06T14:34:36.239Z,3.82
2022-12-06T14:37:21.473Z,3.80
2022-12-06T14:39:52.815Z,3.76
2022-12-06T14:42:38.148Z,3.71
2022-12-06T14:45:12.603Z,3.67
2022-12-06T14:47:39.243Z,3.70
2022-12-06T14:50:24.565Z,3.75
2022-12-06T14:53:02.107Z,3.73
2022-12-06T14:55:34.144Z,3.72
2022-12-06T14:58:22.254Z,3.61
2022-12-06T15:00:58.634Z,3.53
2022-12-06T15:03:34.286Z,3.46
2022-12-06T15:06:23.171Z,3.39
2022-12-06T15:08:55.143Z,3.38
2022-12-06T15:11:49.863Z,3.33
2022-12-06T15:14:20.472Z,3.32
2022-12-06T15:16:57.622Z,3.28
2022-12-06T15:19:24.331Z,3.24
2022-12-06T15:21:54.570Z,3.18
2022-12-06T15:24:23.953Z,3.10
2022-12-06T15:26:51.381Z,3.10
2022-12-06T15:29:18.694Z,3.06
2022-12-06T15:31:52.451Z,3.07
2022-12-06T15:34:35.094Z,3.06
2022-12-06T15:37:37.144Z,3.11
2022-12-06T15:39:48.522Z,3.15
2022-12-06T15:42:19.331Z,3.13
2022-12-06T15:44:49.453Z,3.09
2022-12-06T15:47:17.297Z,3.12
2022-12-06T15:49:43.757Z,3.09
2022-12-06T15:52:18.148Z,3.08
2022-12-06T15:54:45.488Z,3.07
2022-12-06T15:57:12.056Z,3.06
2022-12-06T15:59:38.587Z,3.04
2022-12-06T16:02:13.208Z,3.10
2022-12-06T16:04:40.430Z,3.00
2022-12-06T16:07:07.358Z,3.03
2022-12-06T16:09:33.870Z,3.02
2022-12-06T16:12:00.386Z,2.94
2022-12-06T16:14:26.868Z,2.92
2022-12-06T16:16:53.461Z,2.87
2022-12-06T16:19:19.978Z,2.87
2022-12-06T16:21:58.022Z,2.87
2022-12-06T16:24:43.225Z,2.93
2022-12-06T16:27:35.270Z,2.88
2022-12-06T16:30:03.477Z,2.91
2022-12-06T16:32:33.386Z,2.93
2022-12-06T16:35:26.358Z,2.87
2022-12-06T16:45:21.536Z,2.86
2022-12-06T16:57:07.280Z,2.72
2022-12-06T17:29:49.814Z,2.40
2022-12-06T17:32:18.207Z,2.38
2022-12-06T17:34:44.690Z,2.38
2022-12-06T17:37:11.254Z,2.35
2022-12-06T17:39:37.813Z,2.39
2022-12-06T17:42:23.002Z,2.38
2022-12-06T17:44:51.691Z,2.37
2022-12-06T17:47:19.042Z,2.41
2022-12-06T17:49:45.653Z,2.42
2022-12-06T17:52:13.105Z,2.37
2022-12-06T17:54:39.719Z,2.36
2022-12-06T17:57:06.265Z,2.33
2022-12-06T17:59:33.668Z,2.29
2022-12-06T18:06:36.158Z,2.29
2022-12-06T18:12:49.581Z,2.26
2022-12-06T18:15:36.027Z,2.28
2022-12-06T18:18:02.571Z,2.28
2022-12-06T18:20:29.777Z,2.28
2022-12-06T18:22:56.325Z,2.27
2022-12-06T18:44:11.687Z,2.38
2022-12-06T18:46:39.236Z,2.42
2022-12-06T18:53:03.239Z,2.47
2022-12-06T18:55:29.832Z,2.40
2022-12-06T19:01:43.859Z,2.42
2022-12-06T19:08:19.442Z,2.43
2022-12-06T19:15:26.243Z,2.45
2022-12-06T19:21:54.126Z,2.48
2022-12-06T19:24:25.425Z,2.48
2022-12-06T19:30:39.424Z,2.46
2022-12-06T19:33:06.125Z,2.44
2022-12-06T19:54:15.352Z,2.55
2022-12-06T20:04:18.567Z,2.62
2022-12-06T20:10:35.931Z,2.64
2022-12-06T20:13:02.373Z,2.64
2022-12-06T20:15:30.924Z,2.59
2022-12-06T20:17:57.505Z,2.59
2022-12-06T20:20:24.612Z,2.60
2022-12-06T20:27:29.190Z,2.58
2022-12-06T20:33:42.429Z,2.64
2022-12-06T20:36:13.161Z,2.58
2022-12-06T20:42:34.168Z,2.63
2022-12-06T20:45:00.848Z,2.61
2022-12-06T20:47:27.942Z,2.58
2022-12-06T21:08:29.242Z,2.50
2022-12-06T21:11:24.658Z,2.54
2022-12-06T21:13:58.230Z,2.47
2022-12-06T21:20:06.299Z,2.50
2022-12-06T21:26:19.388Z,2.49
2022-12-06T21:28:45.962Z,2.54
2022-12-06T21:35:08.287Z,2.56
2022-12-06T21:37:35.351Z,2.55
2022-12-06T21:44:05.113Z,2.57
2022-12-06T21:46:35.072Z,2.52
2022-12-06T21:49:02.258Z,2.48
2022-12-06T21:59:50.317Z,2.55
2022-12-06T22:02:21.275Z,2.50
2022-12-06T22:04:47.975Z,2.51
2022-12-06T22:11:06.019Z,2.53
2022-12-06T22:13:40.090Z,2.52
2022-12-06T22:20:14.154Z,2.42
2022-12-06T22:22:40.903Z,2.45
2022-12-06T22:28:48.992Z,2.40
2022-12-06T22:31:22.150Z,2.35
2022-12-06T22:37:41.207Z,2.25
2022-12-06T22:40:08.354Z,2.27
2022-12-06T22:42:35.228Z,2.23
2022-12-06T22:48:49.402Z,2.33
2022-12-06T22:51:22.408Z,2.30
2022-12-06T22:58:05.145Z,2.21
2022-12-06T23:00:31.709Z,2.19
2022-12-06T23:02:58.773Z,2.18
2022-12-06T23:09:32.102Z,2.19
2022-12-06T23:11:58.579Z,2.20
2022-12-06T23:18:12.627Z,2.22
2022-12-06T23:20:39.137Z,2.20
2022-12-06T23:30:19.486Z,2.31
2022-12-06T23:32:45.970Z,2.27
2022-12-06T23:39:05.675Z,2.22
2022-12-06T23:41:33.163Z,2.23
2022-12-06T23:48:13.177Z,2.26
2022-12-06T23:50:39.743Z,2.25
2022-12-06T23:53:06.383Z,2.23
